Time,TemperatureF,DewpointF,PressureIn,WindDirection,WindDirectionDegrees,WindSpeedMPH,WindSpeedGustMPH,Humidity,HourlyPrecipIn,Conditions,Clouds,dailyrainin,SoftwareType,DateUTC
2013-09-23 00:13:00,40.1,24.0,28.94,NE,38,1.0,10.0,52,0.00,,,0.00,weatherlink.com 1.10,2013-09-23 08:13:00,
2013-09-23 00:28:00,40.0,25.0,28.94,ENE,67,2.0,12.0,55,0.00,,,0.00,weatherlink.com 1.10,2013-09-23 08:28:00,
2013-09-23 00:43:00,39.6,26.0,28.95,NNE,18,7.0,13.0,58,0.00,,,0.00,weatherlink.com 1.10,2013-09-23 08:43:00,
2013-09-23 00:58:00,39.2,26.0,28.95,ENE,69,2.0,7.0,60,0.00,,,0.00,weatherlink.com 1.10,2013-09-23 08:58:00,
2013-09-23 01:13:00,38.7,27.0,28.96,ENE,58,4.0,10.0,64,0.00,,,0.00,weatherlink.com 1.10,2013-09-23 09:13:00,
2013-09-23 01:28:00,38.6,27.0,28.96,NNW,347,7.0,11.0,64,0.00,,,0.00,weatherlink.com 1.10,2013-09-23 09:28:00,
2013-09-23 01:43:00,38.4,27.0,28.97,NNE,23,1.0,12.0,65,0.00,,,0.00,weatherlink.com 1.10,2013-09-23 09:43:00,
2013-09-23 01:58:00,38.2,28.0,28.97,NE,55,1.0,6.0,66,0.00,,,0.00,weatherlink.com 1.10,2013-09-23 09:58:00,
2013-09-23 02:13:00,38.1,28.0,28.98,East,91,3.0,6.0,67,0.00,,,0.00,weatherlink.com 1.10,2013-09-23 10:13:00,
2013-09-23 02:29:00,37.6,30.0,28.99,ESE,107,3.0,7.0,73,0.00,,,0.00,weatherlink.com 1.10,2013-09-23 10:29:00,
2013-09-23 02:44:00,37.0,31.0,28.99,ESE,116,0.0,5.0,78,0.00,,,0.00,weatherlink.com 1.10,2013-09-23 10:44:00,
2013-09-23 02:59:00,36.8,31.0,29.00,ENE,57,1.0,1.0,79,0.00,,,0.00,weatherlink.com 1.10,2013-09-23 10:59:00,
2013-09-23 03:14:00,36.5,31.0,29.00,ESE,107,1.0,3.0,80,0.00,,,0.00,weatherlink.com 1.10,2013-09-23 11:14:00,
2013-09-23 03:29:00,36.4,30.0,29.01,ESE,107,0.0,1.0,79,0.00,,,0.00,weatherlink.com 1.10,2013-09-23 11:29:00,
2013-09-23 03:44:00,36.3,30.0,29.01,SSW,195,3.0,4.0,79,0.00,,,0.00,weatherlink.com 1.10,2013-09-23 11:44:00,
2013-09-23 03:59:00,36.1,30.0,29.02,SSE,147,1.0,7.0,79,0.00,,,0.00,weatherlink.com 1.10,2013-09-23 11:59:00,
2013-09-23 04:14:00,35.6,31.0,29.02,SSE,150,1.0,5.0,83,0.00,,,0.00,weatherlink.com 1.10,2013-09-23 12:14:00,
2013-09-23 04:29:00,35.3,31.0,29.03,SSE,162,1.0,3.0,84,0.00,,,0.00,weatherlink.com 1.10,2013-09-23 12:29:00,
2013-09-23 04:44:00,35.7,31.0,29.04,WSW,244,0.0,1.0,84,0.00,,,0.00,weatherlink.com 1.10,2013-09-23 12:44:00,
2013-09-23 04:59:00,36.0,30.0,29.04,SSE,156,1.0,2.0,79,0.00,,,0.00,weatherlink.com 1.10,2013-09-23 12:59:00,
2013-09-23 05:14:00,35.7,30.0,29.05,NE,38,0.0,4.0,80,0.00,,,0.00,weatherlink.com 1.10,2013-09-23 13:14:00,
2013-09-23 05:29:00,35.3,30.0,29.05,NE,56,2.0,4.0,81,0.00,,,0.00,weatherlink.com 1.10,2013-09-23 13:29:00,
2013-09-23 05:44:00,35.0,31.0,29.05,East,100,0.0,2.0,85,0.00,,,0.00,weatherlink.com 1.10,2013-09-23 13:44:00,
2013-09-23 05:59:00,34.2,31.0,29.06,South,172,0.0,5.0,88,0.00,,,0.00,weatherlink.com 1.10,2013-09-23 13:59:00,
2013-09-23 06:14:00,34.0,31.0,29.06,South,183,0.0,3.0,89,0.00,,,0.00,weatherlink.com 1.10,2013-09-23 14:14:00,
2013-09-23 06:29:00,33.8,31.0,29.07,SSE,162,0.0,2.0,89,0.00,,,0.00,weatherlink.com 1.10,2013-09-23 14:29:00,
2013-09-23 06:44:00,33.5,31.0,29.07,SSE,164,1.0,1.0,91,0.00,,,0.00,weatherlink.com 1.10,2013-09-23 14:44:00,
2013-09-23 06:59:00,33.5,31.0,29.08,SSE,164,0.0,2.0,91,0.00,,,0.00,weatherlink.com 1.10,2013-09-23 14:59:00,
2013-09-23 07:14:00,33.4,31.0,29.09,SSE,164,0.0,2.0,92,0.00,,,0.00,weatherlink.com 1.10,2013-09-23 15:14:00,
2013-09-23 07:29:00,33.3,32.0,29.09,SSE,166,0.0,2.0,93,0.00,,,0.00,weatherlink.com 1.10,2013-09-23 15:29:00,
2013-09-23 07:44:00,33.2,31.0,29.09,SSE,165,0.0,1.0,93,0.00,,,0.00,weatherlink.com 1.10,2013-09-23 15:44:00,
2013-09-23 07:59:00,33.1,32.0,29.10,SSE,164,0.0,2.0,94,0.00,,,0.00,weatherlink.com 1.10,2013-09-23 15:59:00,
2013-09-23 08:14:00,32.9,31.0,29.10,SSE,150,0.0,1.0,94,0.00,,,0.00,weatherlink.com 1.10,2013-09-23 16:14:00,
2013-09-23 08:29:00,33.0,32.0,29.11,SSE,150,0.0,0.0,95,0.00,,,0.00,weatherlink.com 1.10,2013-09-23 16:29:00,
2013-09-23 08:44:00,33.2,32.0,29.11,SSE,149,0.0,1.0,95,0.00,,,0.00,weatherlink.com 1.10,2013-09-23 16:44:00,
2013-09-23 08:59:00,33.2,32.0,29.12,SSE,149,0.0,1.0,95,0.00,,,0.00,weatherlink.com 1.10,2013-09-23 16:59:00,
2013-09-23 09:14:00,33.0,32.0,29.12,SE,125,0.0,2.0,95,0.00,,,0.00,weatherlink.com 1.10,2013-09-23 17:14:00,
2013-09-23 09:29:00,33.0,32.0,29.12,ESE,115,0.0,2.0,95,0.00,,,0.00,weatherlink.com 1.10,2013-09-23 17:29:00,
2013-09-23 09:45:00,33.3,32.0,29.13,SE,128,0.0,0.0,95,0.00,,,0.00,weatherlink.com 1.10,2013-09-23 17:45:00,
2013-09-23 10:00:00,33.4,32.0,29.14,SE,125,0.0,1.0,95,0.00,,,0.00,weatherlink.com 1.10,2013-09-23 18:00:00,
2013-09-23 10:15:00,33.3,32.0,29.14,ESE,112,0.0,1.0,94,0.00,,,0.00,weatherlink.com 1.10,2013-09-23 18:15:00,
2013-09-23 10:30:00,33.7,32.0,29.14,ESE,112,1.0,2.0,94,0.00,,,0.00,weatherlink.com 1.10,2013-09-23 18:30:00,
2013-09-23 10:45:00,33.9,32.0,29.15,East,97,0.0,3.0,93,0.00,,,0.00,weatherlink.com 1.10,2013-09-23 18:45:00,
2013-09-23 11:00:00,33.9,32.0,29.15,SE,131,0.0,2.0,94,0.01,,,0.01,weatherlink.com 1.10,2013-09-23 19:00:00,
2013-09-23 11:15:00,33.8,32.0,29.16,ESE,123,0.0,3.0,94,0.01,,,0.01,weatherlink.com 1.10,2013-09-23 19:15:00,
2013-09-23 11:30:00,33.7,32.0,29.16,ESE,123,1.0,3.0,94,0.02,,,0.02,weatherlink.com 1.10,2013-09-23 19:30:00,
2013-09-23 11:45:00,33.5,32.0,29.17,SE,141,1.0,4.0,94,0.02,,,0.02,weatherlink.com 1.10,2013-09-23 19:45:00,
2013-09-23 12:00:00,33.7,33.0,29.18,SE,125,1.0,3.0,95,0.02,,,0.03,weatherlink.com 1.10,2013-09-23 20:00:00,
2013-09-23 12:15:00,33.6,32.0,29.18,SE,125,0.0,5.0,95,0.02,,,0.03,weatherlink.com 1.10,2013-09-23 20:15:00,
2013-09-23 12:30:00,33.9,32.0,29.19,SE,134,0.0,4.0,94,0.02,,,0.04,weatherlink.com 1.10,2013-09-23 20:30:00,
2013-09-23 12:45:00,34.3,33.0,29.20,South,177,3.0,4.0,95,0.03,,,0.05,weatherlink.com 1.10,2013-09-23 20:45:00,
2013-09-23 13:00:00,34.6,33.0,29.19,SSE,156,3.0,4.0,95,0.02,,,0.05,weatherlink.com 1.10,2013-09-23 21:00:00,
2013-09-23 13:15:00,34.8,33.0,29.20,SSE,156,1.0,5.0,94,0.03,,,0.06,weatherlink.com 1.10,2013-09-23 21:15:00,
2013-09-23 13:30:00,35.0,33.0,29.20,SSW,198,0.0,6.0,93,0.03,,,0.07,weatherlink.com 1.10,2013-09-23 21:30:00,
2013-09-23 13:45:00,35.4,33.0,29.20,SE,140,4.0,4.0,92,0.02,,,0.07,weatherlink.com 1.10,2013-09-23 21:45:00,
2013-09-23 14:00:00,35.9,34.0,29.21,SE,127,3.0,3.0,92,0.03,,,0.08,weatherlink.com 1.10,2013-09-23 22:00:00,
2013-09-23 14:15:00,36.5,34.0,29.21,SSW,200,0.0,3.0,92,0.03,,,0.09,weatherlink.com 1.10,2013-09-23 22:15:00,
2013-09-23 14:30:00,36.6,34.0,29.22,SSE,152,2.0,6.0,90,0.02,,,0.09,weatherlink.com 1.10,2013-09-23 22:30:00,
2013-09-23 14:45:00,37.2,35.0,29.22,SSE,151,3.0,5.0,90,0.03,,,0.10,weatherlink.com 1.10,2013-09-23 22:45:00,
2013-09-23 15:00:00,38.2,35.0,29.23,SSE,149,0.0,3.0,89,0.02,,,0.10,weatherlink.com 1.10,2013-09-23 23:00:00,
2013-09-23 15:15:00,38.7,35.0,29.24,SSW,192,2.0,4.0,86,0.02,,,0.11,weatherlink.com 1.10,2013-09-23 23:15:00,
2013-09-23 15:30:00,38.8,35.0,29.24,ESE,102,6.0,6.0,85,0.02,,,0.11,weatherlink.com 1.10,2013-09-23 23:30:00,
2013-09-23 15:45:00,38.9,35.0,29.25,SE,143,3.0,8.0,84,0.01,,,0.11,weatherlink.com 1.10,2013-09-23 23:45:00,
2013-09-23 16:00:00,38.8,34.0,29.25,SE,133,1.0,8.0,84,0.01,,,0.11,weatherlink.com 1.10,2013-09-24 00:00:00,
2013-09-23 16:15:00,38.8,35.0,29.25,SE,127,1.0,8.0,85,0.00,,,0.11,weatherlink.com 1.10,2013-09-24 00:15:00,
2013-09-23 16:30:00,39.2,35.0,29.25,ESE,105,2.0,7.0,83,0.00,,,0.11,weatherlink.com 1.10,2013-09-24 00:30:00,
2013-09-23 16:45:00,39.5,34.0,29.26,East,98,0.0,6.0,82,0.00,,,0.11,weatherlink.com 1.10,2013-09-24 00:45:00,
2013-09-23 17:00:00,40.0,34.0,29.27,East,91,0.0,5.0,79,0.00,,,0.11,weatherlink.com 1.10,2013-09-24 01:00:00,
2013-09-23 17:15:00,40.7,34.0,29.27,East,100,0.0,4.0,78,0.00,,,0.11,weatherlink.com 1.10,2013-09-24 01:15:00,
2013-09-23 17:30:00,41.2,34.0,29.27,East,97,1.0,8.0,74,0.00,,,0.11,weatherlink.com 1.10,2013-09-24 01:30:00,
2013-09-23 17:45:00,41.8,34.0,29.27,East,81,3.0,5.0,74,0.00,,,0.11,weatherlink.com 1.10,2013-09-24 01:45:00,
2013-09-23 18:01:00,42.0,33.0,29.27,ESE,106,5.0,10.0,71,0.00,,,0.11,weatherlink.com 1.10,2013-09-24 02:01:00,
2013-09-23 18:16:00,41.3,34.0,29.28,WNW,287,1.0,10.0,74,0.00,,,0.11,weatherlink.com 1.10,2013-09-24 02:16:00,
2013-09-23 18:31:00,42.1,34.0,29.28,ESE,109,3.0,9.0,73,0.00,,,0.11,weatherlink.com 1.10,2013-09-24 02:31:00,
2013-09-23 18:46:00,42.8,34.0,29.28,ENE,62,6.0,10.0,70,0.00,,,0.11,weatherlink.com 1.10,2013-09-24 02:46:00,
2013-09-23 19:01:00,43.0,33.0,29.28,East,83,3.0,8.0,68,0.00,,,0.11,weatherlink.com 1.10,2013-09-24 03:01:00,
2013-09-23 19:16:00,43.0,33.0,29.29,East,89,1.0,5.0,69,0.00,,,0.11,weatherlink.com 1.10,2013-09-24 03:16:00,
2013-09-23 19:31:00,42.5,33.0,29.29,NNE,27,0.0,7.0,69,0.00,,,0.11,weatherlink.com 1.10,2013-09-24 03:31:00,
2013-09-23 19:46:00,41.6,33.0,29.30,NNE,28,0.0,4.0,72,0.00,,,0.11,weatherlink.com 1.10,2013-09-24 03:46:00,
2013-09-23 20:01:00,40.9,34.0,29.30,NNE,18,2.0,5.0,75,0.00,,,0.11,weatherlink.com 1.10,2013-09-24 04:01:00,
2013-09-23 20:16:00,40.2,34.0,29.30,NNE,31,2.0,4.0,77,0.00,,,0.11,weatherlink.com 1.10,2013-09-24 04:16:00,
2013-09-23 20:31:00,39.7,33.0,29.31,NNE,33,3.0,3.0,78,0.00,,,0.11,weatherlink.com 1.10,2013-09-24 04:31:00,
2013-09-23 20:46:00,39.3,34.0,29.32,NE,53,2.0,3.0,80,0.00,,,0.11,weatherlink.com 1.10,2013-09-24 04:46:00,
2013-09-23 21:01:00,38.4,33.0,29.33,NE,35,1.0,4.0,82,0.00,,,0.11,weatherlink.com 1.10,2013-09-24 05:01:00,
2013-09-23 21:16:00,37.9,34.0,29.33,NE,48,0.0,2.0,84,0.00,,,0.11,weatherlink.com 1.10,2013-09-24 05:16:00,
2013-09-23 21:31:00,37.2,33.0,29.34,NE,50,0.0,2.0,85,0.00,,,0.11,weatherlink.com 1.10,2013-09-24 05:31:00,
2013-09-23 21:46:00,36.6,33.0,29.34,NE,51,1.0,1.0,86,0.00,,,0.11,weatherlink.com 1.10,2013-09-24 05:46:00,
2013-09-23 22:01:00,36.0,33.0,29.35,NE,51,1.0,2.0,88,0.00,,,0.11,weatherlink.com 1.10,2013-09-24 06:01:00,
2013-09-23 22:16:00,35.6,32.0,29.36,NE,38,1.0,2.0,88,0.00,,,0.11,weatherlink.com 1.10,2013-09-24 06:16:00,
2013-09-23 22:31:00,34.9,32.0,29.36,NNE,30,0.0,3.0,90,0.00,,,0.11,weatherlink.com 1.10,2013-09-24 06:31:00,
2013-09-23 22:46:00,34.4,32.0,29.37,ENE,70,0.0,4.0,91,0.00,,,0.11,weatherlink.com 1.10,2013-09-24 06:46:00,
2013-09-23 23:01:00,34.0,32.0,29.38,East,79,0.0,2.0,92,0.00,,,0.11,weatherlink.com 1.10,2013-09-24 07:01:00,
2013-09-23 23:16:00,33.4,31.0,29.38,ESE,118,2.0,2.0,91,0.00,,,0.11,weatherlink.com 1.10,2013-09-24 07:16:00,
2013-09-23 23:31:00,33.2,31.0,29.39,ESE,121,1.0,2.0,93,0.00,,,0.11,weatherlink.com 1.10,2013-09-24 07:31:00,
2013-09-23 23:46:00,33.6,31.0,29.39,SE,146,1.0,3.0,91,0.00,,,0.11,weatherlink.com 1.10,2013-09-24 07:46:00,